Time;durP1;ratioP1;P1;durP2;ratioP2;P2;SDS_P1;SDS_P2;PMS_P1;PMS_P2;Temp;Humidity;BMP_temperature;BMP_pressure;BME280_temperature;BME280_humidity;BME280_pressure;Samples;Min_cycle;Max_cycle;Signal;HPM_P1;HPM_P2
2023/10/11 00:00:32;;;;;;;17.48;8.25;;;;;;;16.45;67.01;100862.16;4180632;28;20045;-64
2023/10/11 00:02:35;;;;;;;22.85;8.10;;;;;;;16.46;67.00;100865.66;4182774;28;20072;-65
2023/10/11 00:04:40;;;;;;;18.45;6.97;;;;;;;16.49;66.88;100863.03;4186212;28;20086;-65
2023/10/11 00:06:43;;;;;;;13.43;6.65;;;;;;;16.49;66.83;100860.41;4190004;28;20040;-65
2023/10/11 00:08:46;;;;;;;15.05;6.97;;;;;;;16.50;67.08;100870.00;4187334;28;20518;-65
2023/10/11 00:10:53;;;;;;;16.58;6.88;;;;;;;16.54;66.62;100863.88;4183785;28;20040;-65
2023/10/11 00:12:58;;;;;;;15.05;6.65;;;;;;;16.56;66.57;100867.38;4184769;28;20127;-65
2023/10/11 00:15:02;;;;;;;22.38;8.20;;;;;;;16.54;66.15;100869.09;4188368;28;20032;-65
2023/10/11 00:17:08;;;;;;;17.98;8.10;;;;;;;16.56;66.15;100870.84;4184512;28;20067;-67
2023/10/11 00:19:15;;;;;;;20.85;7.55;;;;;;;16.50;66.30;100867.38;4186565;28;20123;-66
2023/10/11 00:21:19;;;;;;;17.45;6.50;;;;;;;16.52;66.15;100870.88;4184258;28;20033;-66
2023/10/11 00:23:24;;;;;;;16.55;8.25;;;;;;;16.49;66.17;100866.50;4180803;28;20064;-66
2023/10/11 00:25:27;;;;;;;;;;;;;;;16.43;66.38;100863.03;4187930;28;20029;-65
2023/10/11 00:27:30;;;;;;;17.30;7.15;;;;;;;16.42;66.61;100864.78;4189833;28;20003;-65
2023/10/11 00:29:39;;;;;;;19.73;7.55;;;;;;;16.42;66.55;100863.91;4167469;28;20038;-65
2023/10/11 00:31:42;;;;;;;17.40;7.43;;;;;;;16.40;66.61;100864.78;4195797;28;20040;-65
2023/10/11 00:33:47;;;;;;;18.88;8.00;;;;;;;16.37;66.67;100866.56;4190190;28;20048;-66
2023/10/11 00:35:52;;;;;;;15.23;7.47;;;;;;;16.35;66.75;100869.19;4186177;28;20084;-65
2023/10/11 00:37:55;;;;;;;16.67;6.32;;;;;;;16.38;66.16;100869.19;4188068;28;20489;-65
2023/10/11 00:39:58;;;;;;;14.20;7.40;;;;;;;16.36;66.60;100863.03;4187217;28;20036;-66
2023/10/11 00:42:01;;;;;;;14.38;6.93;;;;;;;16.32;66.82;100863.94;4187345;28;20088;-65
2023/10/11 00:44:05;;;;;;;13.18;7.00;;;;;;;16.25;67.30;100859.56;4211565;28;20044;-65
2023/10/11 00:46:08;;;;;;;18.42;7.25;;;;;;;16.21;67.24;100865.72;4189903;28;20032;-65
2023/10/11 00:48:13;;;;;;;21.33;8.60;;;;;;;16.21;67.34;100857.88;4183940;28;20556;-65
2023/10/11 00:50:18;;;;;;;16.38;6.75;;;;;;;16.19;67.54;100855.25;4172291;28;20041;-65
2023/10/11 00:52:21;;;;;;;19.42;7.47;;;;;;;16.14;67.52;100858.75;4203373;28;20033;-65
2023/10/11 00:54:27;;;;;;;19.15;7.80;;;;;;;16.12;67.55;100853.50;4188695;28;20126;-66
2023/10/11 00:56:32;;;;;;;18.15;7.53;;;;;;;16.11;67.55;100849.13;4187382;28;20043;-66
2023/10/11 00:58:38;;;;;;;12.93;6.78;;;;;;;16.11;67.67;100848.28;4187417;28;20037;-66
2023/10/11 01:00:42;;;;;;;15.68;6.97;;;;;;;16.07;67.98;100852.63;4175701;28;20053;-66
2023/10/11 01:02:45;;;;;;;14.03;7.17;;;;;;;16.07;68.05;100854.41;4179456;28;20510;-66
2023/10/11 01:04:48;;;;;;;18.08;8.07;;;;;;;16.09;67.69;100850.00;4188795;28;20047;-66
2023/10/11 01:06:53;;;;;;;18.02;7.68;;;;;;;16.09;67.59;100844.75;4191314;28;20040;-66
2023/10/11 01:08:56;;;;;;;;;;;;;;;15.94;68.07;100845.66;4181662;28;20029;-66
2023/10/11 01:10:58;;;;;;;16.02;7.65;;;;;;;15.93;67.90;100847.44;4184995;28;19955;-66
2023/10/11 01:13:01;;;;;;;13.90;6.75;;;;;;;15.95;67.72;100840.41;4193505;28;20411;-66
2023/10/11 01:15:11;;;;;;;15.38;7.43;;;;;;;15.98;67.93;100836.94;4174019;28;20083;-66
2023/10/11 01:17:14;;;;;;;21.42;7.68;;;;;;;15.94;67.74;100833.41;4189575;28;20102;-66
2023/10/11 01:19:18;;;;;;;14.48;7.47;;;;;;;15.97;67.73;100833.41;4188076;28;20029;-66
2023/10/11 01:21:23;;;;;;;18.83;8.27;;;;;;;15.96;67.59;100831.69;4206144;28;20052;-66
2023/10/11 01:23:25;;;;;;;16.05;7.88;;;;;;;15.92;67.90;100829.94;4207194;28;20808;-66
2023/10/11 01:25:29;;;;;;;16.13;7.18;;;;;;;15.87;67.70;100835.19;4187814;28;20029;-66
2023/10/11 01:27:32;;;;;;;20.35;8.43;;;;;;;15.92;67.99;100835.19;4189765;28;20060;-66
2023/10/11 01:29:37;;;;;;;15.38;7.47;;;;;;;15.93;67.61;100823.84;4183758;28;20571;-66
2023/10/11 01:31:40;;;;;;;17.98;7.47;;;;;;;15.87;67.95;100829.97;4201614;28;20044;-66
2023/10/11 01:33:44;;;;;;;17.35;7.45;;;;;;;15.95;67.63;100829.06;4201438;28;20044;-66
2023/10/11 01:35:48;;;;;;;18.63;7.53;;;;;;;15.83;67.73;100829.97;4188504;28;20040;-66
2023/10/11 01:37:55;;;;;;;19.42;7.85;;;;;;;15.81;67.75;100823.84;4188497;28;20036;-66
2023/10/11 01:39:57;;;;;;;15.13;7.82;;;;;;;15.82;67.96;100830.84;4187546;28;20551;-66
2023/10/11 01:42:01;;;;;;;19.58;8.45;;;;;;;15.78;67.93;100826.44;4190197;28;20035;-66
2023/10/11 01:44:23;;;;;;;17.10;7.95;;;;;;;15.79;67.59;100831.72;4188218;28;20106;-66
2023/10/11 01:46:27;;;;;;;16.40;7.50;;;;;;;15.74;67.89;100824.69;4187554;28;20039;-66
2023/10/11 01:48:30;;;;;;;15.35;6.95;;;;;;;15.69;67.62;100828.19;4188242;28;20087;-65
2023/10/11 01:50:37;;;;;;;17.23;7.45;;;;;;;15.66;68.17;100827.31;4185364;28;20490;-65
2023/10/11 01:52:40;;;;;;;17.33;8.40;;;;;;;15.62;68.23;100823.81;4188601;28;20040;-65
2023/10/11 01:54:47;;;;;;;14.65;7.03;;;;;;;15.65;68.43;100829.09;4189460;28;20088;-66
2023/10/11 01:56:52;;;;;;;21.90;7.85;;;;;;;15.60;68.78;100819.47;4186635;28;20504;-65
2023/10/11 01:58:56;;;;;;;15.93;7.15;;;;;;;15.57;68.64;100819.47;4188125;28;20049;-66
2023/10/11 02:00:59;;;;;;;16.00;7.30;;;;;;;15.54;68.39;100812.50;4186197;28;20119;-66
2023/10/11 02:03:08;;;;;;;17.85;7.40;;;;;;;15.52;68.37;100811.59;4187604;28;20432;-65
2023/10/11 02:05:12;;;;;;;17.88;7.78;;;;;;;15.50;69.41;100808.13;4187515;28;20060;-65
2023/10/11 02:07:15;;;;;;;17.00;6.40;;;;;;;15.50;69.18;100808.13;4188477;28;20556;-65
2023/10/11 02:09:20;;;;;;;16.80;7.43;;;;;;;15.45;69.23;100815.97;4188576;28;20040;-65
2023/10/11 02:11:29;;;;;;;18.05;7.50;;;;;;;15.41;69.72;100809.00;4187840;28;20033;-65
2023/10/11 02:13:33;;;;;;;15.95;6.70;;;;;;;15.39;69.48;100815.09;4187713;28;20083;-65
2023/10/11 02:15:38;;;;;;;17.75;6.95;;;;;;;15.35;69.75;100812.47;4188122;28;20048;-65
2023/10/11 02:17:39;;;;;;;15.75;7.30;;;;;;;15.33;69.34;100811.63;4190324;28;20041;-65
2023/10/11 02:19:43;;;;;;;13.98;7.65;;;;;;;15.33;69.95;100816.84;4187782;28;20040;-65
2023/10/11 02:21:46;;;;;;;15.27;7.80;;;;;;;15.32;69.11;100811.63;4189257;28;20040;-65
2023/10/11 02:23:49;;;;;;;16.98;7.30;;;;;;;15.34;69.11;100815.09;4190534;28;20063;-65
2023/10/11 02:25:52;;;;;;;15.63;7.45;;;;;;;15.32;69.53;100814.25;4188502;28;20036;-65
2023/10/11 02:27:55;;;;;;;16.60;7.18;;;;;;;15.30;69.54;100822.09;4187168;28;20037;-65
2023/10/11 02:30:01;;;;;;;13.55;7.03;;;;;;;15.29;69.70;100812.50;4190604;28;20033;-65
2023/10/11 02:32:08;;;;;;;13.82;7.60;;;;;;;15.28;69.70;100817.72;4187417;28;20056;-65
2023/10/11 02:34:13;;;;;;;12.50;8.05;;;;;;;15.25;69.82;100821.22;4184915;28;20474;-65
2023/10/11 02:36:18;;;;;;;15.38;7.45;;;;;;;15.23;70.18;100816.84;4183702;28;20041;-65
2023/10/11 02:38:23;;;;;;;18.88;8.13;;;;;;;15.19;69.83;100813.34;4187133;28;20426;-65
2023/10/11 02:40:30;;;;;;;;;;;;;;;15.06;70.37;100812.47;4192203;28;20037;-65
2023/10/11 02:42:32;;;;;;;13.13;6.15;;;;;;;15.06;70.02;100817.69;4189206;28;19931;-65
2023/10/11 02:44:39;;;;;;;16.13;7.50;;;;;;;15.06;70.60;100809.84;4187986;28;20048;-66
2023/10/11 02:46:44;;;;;;;15.32;7.35;;;;;;;15.05;70.44;100805.47;4187885;28;20044;-65
2023/10/11 02:48:48;;;;;;;14.15;7.13;;;;;;;15.03;70.32;100811.59;4189377;28;20048;-66
2023/10/11 02:50:54;;;;;;;18.08;7.65;;;;;;;15.01;70.18;100809.84;4189794;28;20056;-66
2023/10/11 02:53:05;;;;;;;16.45;7.13;;;;;;;14.99;70.24;100805.47;4176039;28;20037;-66
2023/10/11 02:55:20;;;;;;;16.70;8.10;;;;;;;14.96;70.71;100808.94;4189459;28;20430;-66
2023/10/11 02:57:25;;;;;;;15.50;8.45;;;;;;;14.96;70.61;100803.72;4188745;28;20044;-65
2023/10/11 02:59:28;;;;;;;14.75;7.47;;;;;;;14.96;70.65;100790.63;4187334;28;20052;-65
2023/10/11 03:01:33;;;;;;;17.45;7.72;;;;;;;14.92;70.77;100804.59;4185708;28;20120;-65
2023/10/11 03:03:38;;;;;;;19.00;7.00;;;;;;;14.88;70.14;100797.59;4188241;28;20443;-65
2023/10/11 03:05:42;;;;;;;16.13;7.15;;;;;;;14.92;69.88;100804.59;4189958;28;20037;-66
2023/10/11 03:07:45;;;;;;;15.80;7.72;;;;;;;14.95;70.58;100809.84;4163698;28;20039;-65
2023/10/11 03:09:48;;;;;;;17.92;7.93;;;;;;;14.95;69.58;100801.09;4205173;28;20039;-65
2023/10/11 03:11:51;;;;;;;17.35;7.45;;;;;;;14.92;70.66;100808.94;4202261;28;20070;-66
2023/10/11 03:13:53;;;;;;;18.23;8.18;;;;;;;14.98;70.04;100804.59;4188004;28;20045;-65
2023/10/11 03:15:57;;;;;;;15.43;8.18;;;;;;;14.96;70.12;100808.94;4189798;28;20032;-65
2023/10/11 03:18:06;;;;;;;12.80;7.15;;;;;;;14.93;69.78;100803.72;4187114;28;20119;-65
2023/10/11 03:20:09;;;;;;;18.08;7.30;;;;;;;14.91;70.03;100808.09;4185650;28;20032;-65
2023/10/11 03:22:19;;;;;;;14.20;7.28;;;;;;;14.88;70.44;100802.84;4186539;28;20040;-65
2023/10/11 03:24:25;;;;;;;16.58;8.10;;;;;;;14.88;70.11;100802.84;4190381;28;20124;-65
2023/10/11 03:26:31;;;;;;;16.38;7.18;;;;;;;14.88;70.29;100807.19;4190169;28;20123;-65
2023/10/11 03:28:34;;;;;;;19.67;8.82;;;;;;;14.87;70.06;100801.09;4188816;28;20032;-65
2023/10/11 03:30:38;;;;;;;11.25;6.93;;;;;;;14.85;70.01;100802.84;4185714;28;20044;-65
2023/10/11 03:32:44;;;;;;;14.80;7.30;;;;;;;14.83;70.13;100801.94;4189737;28;20036;-65
2023/10/11 03:34:47;;;;;;;13.20;7.10;;;;;;;14.83;70.37;100796.72;4183082;28;20306;-66
2023/10/11 03:36:56;;;;;;;16.58;7.80;;;;;;;14.82;70.10;100792.34;4181578;28;20029;-65
2023/10/11 03:39:08;;;;;;;19.23;7.97;;;;;;;14.82;70.07;100787.09;4184011;28;20037;-65
2023/10/11 03:41:14;;;;;;;17.15;7.25;;;;;;;14.83;70.57;100783.63;4190588;28;20036;-64
2023/10/11 03:43:18;;;;;;;15.27;7.45;;;;;;;14.77;70.08;100784.47;4183584;28;20514;-68
2023/10/11 03:45:27;;;;;;;15.05;8.25;;;;;;;14.75;70.73;100785.38;4190446;28;20045;-65
2023/10/11 03:47:31;;;;;;;14.48;7.55;;;;;;;14.75;71.02;100791.47;4186119;28;20040;-65
2023/10/11 03:49:49;;;;;;;;;;;;;;;14.60;70.65;100786.16;4190026;28;20041;-65
2023/10/11 03:51:53;;;;;;;14.98;7.50;;;;;;;14.57;71.06;100789.66;4186472;28;19963;-66
2023/10/11 03:53:56;;;;;;;16.17;7.65;;;;;;;14.58;71.34;100787.91;4191641;28;20131;-66
2023/10/11 03:56:02;;;;;;;14.32;7.82;;;;;;;14.59;71.03;100790.50;4189074;28;20481;-66
2023/10/11 03:58:05;;;;;;;16.27;8.60;;;;;;;14.59;71.08;100790.50;4183103;28;20044;-66
2023/10/11 04:00:24;;;;;;;19.02;7.90;;;;;;;14.62;71.08;100789.69;4180720;28;20562;-65
2023/10/11 04:02:28;;;;;;;17.60;7.75;;;;;;;14.55;71.70;100788.75;4183588;28;20485;-66
2023/10/11 04:04:31;;;;;;;19.77;8.57;;;;;;;14.66;71.43;100781.84;4181215;28;20043;-65
2023/10/11 04:06:34;;;;;;;19.90;8.95;;;;;;;14.59;71.46;100782.66;4182941;28;20037;-66
2023/10/11 04:08:41;;;;;;;17.00;8.20;;;;;;;14.68;71.09;100788.84;4178924;28;20041;-66
2023/10/11 04:10:49;;;;;;;18.05;7.22;;;;;;;14.53;70.82;100784.38;4177405;28;20048;-66
2023/10/11 04:12:53;;;;;;;17.63;8.95;;;;;;;14.51;71.32;100781.75;4180103;28;20582;-66
2023/10/11 04:14:58;;;;;;;18.50;7.88;;;;;;;14.49;71.21;100788.75;4179287;28;20132;-66
2023/10/11 04:17:04;;;;;;;20.50;7.65;;;;;;;14.44;71.66;100788.72;4183084;28;20048;-66
2023/10/11 04:19:08;;;;;;;17.60;8.70;;;;;;;14.53;71.40;100785.28;4183498;28;20127;-66
2023/10/11 04:21:25;;;;;;;12.77;7.38;;;;;;;14.53;71.31;100785.28;4162905;28;20125;-65
2023/10/11 04:23:27;;;;;;;25.15;7.95;;;;;;;14.50;70.91;100780.03;4181936;28;20526;-65
2023/10/11 04:25:38;;;;;;;15.85;8.02;;;;;;;14.58;71.52;100778.28;4182056;28;20067;-66
2023/10/11 04:27:54;;;;;;;15.68;7.68;;;;;;;14.54;71.48;100784.38;4176746;28;20551;-65
2023/10/11 04:29:57;;;;;;;18.98;8.13;;;;;;;14.51;71.14;100781.75;4177873;28;20136;-66
2023/10/11 04:32:09;;;;;;;15.27;6.50;;;;;;;14.45;71.24;100782.59;4183363;28;20036;-66
2023/10/11 04:34:14;;;;;;;18.08;7.88;;;;;;;14.46;71.16;100783.50;4183675;28;20082;-66
2023/10/11 04:36:20;;;;;;;15.48;7.25;;;;;;;14.43;71.73;100793.97;4210866;28;20040;-66
2023/10/11 04:38:23;;;;;;;20.52;8.25;;;;;;;14.46;71.55;100783.50;4186554;28;20047;-66
2023/10/11 04:40:39;;;;;;;21.13;7.97;;;;;;;14.48;71.17;100781.75;4185462;28;20131;-66
2023/10/11 04:42:44;;;;;;;17.17;8.50;;;;;;;14.51;71.00;100781.75;4167026;28;20168;-66
2023/10/11 04:44:54;;;;;;;21.88;8.85;;;;;;;14.39;71.55;100776.50;4187627;28;20143;-66
2023/10/11 04:47:00;;;;;;;18.65;7.57;;;;;;;14.39;71.02;100772.13;4187549;28;20367;-66
2023/10/11 04:49:18;;;;;;;19.55;8.98;;;;;;;14.39;72.22;100776.50;4189338;28;20491;-66
2023/10/11 04:51:23;;;;;;;12.48;6.25;;;;;;;14.35;71.33;100779.97;4185115;28;20037;-66
2023/10/11 04:53:32;;;;;;;16.52;8.38;;;;;;;14.40;71.68;100773.88;4189161;28;20052;-66
2023/10/11 04:55:37;;;;;;;17.58;8.18;;;;;;;14.38;72.02;100785.22;4187562;28;20076;-66
2023/10/11 04:57:40;;;;;;;;;;;;;;;14.27;72.12;100777.31;4188565;28;20471;-66
2023/10/11 04:59:46;;;;;;;14.48;6.53;;;;;;;14.23;71.87;100784.28;4183125;28;19962;-66
2023/10/11 05:02:07;;;;;;;18.73;7.65;;;;;;;14.32;72.24;100781.72;4182899;28;20519;-66
2023/10/11 05:04:13;;;;;;;19.13;8.23;;;;;;;14.30;71.96;100772.97;4187253;28;20079;-66
2023/10/11 05:06:30;;;;;;;17.73;7.95;;;;;;;14.35;71.70;100774.75;4186166;28;20411;-68
2023/10/11 05:10:55;;;;;;;17.70;8.00;;;;;;;14.30;71.95;100772.97;4175760;28;20511;-66
2023/10/11 05:13:05;;;;;;;18.58;8.13;;;;;;;14.29;71.73;100771.25;4183067;28;20455;-66
2023/10/11 05:15:10;;;;;;;21.40;8.50;;;;;;;14.34;71.42;100776.50;4186780;28;20067;-66
2023/10/11 05:17:38;;;;;;;20.40;8.48;;;;;;;14.32;71.77;100776.47;4184640;28;20041;-66
2023/10/11 05:19:45;;;;;;;16.80;8.70;;;;;;;14.32;71.61;100773.88;4188384;28;20083;-66
2023/10/11 05:21:52;;;;;;;17.55;8.35;;;;;;;14.25;71.91;100777.31;4191569;28;20037;-66
2023/10/11 05:24:33;;;;;;;16.38;7.88;;;;;;;14.22;72.51;100782.53;4191999;28;20106;-65
2023/10/11 05:26:37;;;;;;;16.95;9.52;;;;;;;14.29;72.00;100779.09;4182840;28;20479;-65
2023/10/11 05:28:59;;;;;;;13.93;7.53;;;;;;;14.14;71.85;100779.00;4187425;28;20044;-65
2023/10/11 05:31:19;;;;;;;18.98;9.05;;;;;;;14.20;72.15;100776.41;4185661;28;20379;-66
2023/10/11 05:33:41;;;;;;;18.38;8.43;;;;;;;14.12;72.83;100775.53;4189171;28;20033;-66
2023/10/11 05:36:09;;;;;;;15.85;7.85;;;;;;;14.15;72.13;100780.78;4184592;28;20051;-66
2023/10/11 05:52:13;;;;;;;14.18;7.20;;;;;;;14.05;72.65;100803.38;4189418;28;20401;-66
2023/10/11 05:54:18;;;;;;;15.60;8.10;;;;;;;14.04;73.02;100804.22;4190646;28;20051;-66
2023/10/11 05:56:22;;;;;;;18.10;7.78;;;;;;;14.03;73.02;100799.00;4189703;28;20037;-66
2023/10/11 05:58:25;;;;;;;17.33;7.18;;;;;;;14.05;72.49;100808.59;4188033;28;20033;-66
2023/10/11 06:00:28;;;;;;;14.68;7.43;;;;;;;14.09;73.35;100812.09;4184481;28;20041;-66
2023/10/11 06:02:32;;;;;;;19.42;7.53;;;;;;;14.16;72.56;100807.78;4187257;28;20047;-66
2023/10/11 06:04:39;;;;;;;15.25;8.25;;;;;;;14.11;72.36;100802.53;4187293;28;20127;-66
2023/10/11 06:06:42;;;;;;;18.67;7.38;;;;;;;14.08;73.04;100802.53;4186073;28;20098;-66
2023/10/11 06:08:46;;;;;;;15.98;8.10;;;;;;;14.11;72.62;100802.53;4187189;28;20530;-66
2023/10/11 06:10:55;;;;;;;18.60;8.32;;;;;;;14.12;73.00;100805.16;4190792;28;20105;-66
2023/10/11 06:12:58;;;;;;;18.85;7.25;;;;;;;14.12;72.07;100804.28;4188551;28;20068;-66
2023/10/11 06:15:05;;;;;;;20.52;7.95;;;;;;;14.11;72.13;100797.31;4186240;28;20083;-66
2023/10/11 06:17:16;;;;;;;16.88;7.78;;;;;;;14.06;73.10;100797.28;4188958;28;20048;-66
2023/10/11 06:20:23;;;;;;;17.42;7.75;;;;;;;14.07;72.97;100801.63;4187919;28;20045;-66
2023/10/11 06:22:28;;;;;;;15.57;8.27;;;;;;;14.03;72.35;100796.38;4180656;28;20475;-66
2023/10/11 06:24:33;;;;;;;22.92;7.88;;;;;;;14.10;72.95;100806.00;4190682;28;20450;-66
2023/10/11 06:26:53;;;;;;;;;;;;;;;14.02;73.07;100805.06;4185021;28;20124;-65
2023/10/11 06:32:02;;;;;;;14.95;7.60;;;;;;;14.09;72.03;100804.25;4180929;28;20123;-65
2023/10/11 06:34:26;;;;;;;22.05;10.68;;;;;;;14.21;71.60;100803.47;4186133;28;20044;-65
2023/10/11 06:36:29;;;;;;;22.02;12.52;;;;;;;14.21;71.77;100808.69;4190195;28;20048;-65
2023/10/11 06:38:41;;;;;;;22.33;9.90;;;;;;;14.25;71.95;100799.97;4190045;28;20565;-65
2023/10/11 06:40:47;;;;;;;20.40;11.07;;;;;;;14.26;72.14;100807.81;4187067;28;20037;-66
2023/10/11 06:42:55;;;;;;;19.67;9.48;;;;;;;14.37;72.13;100807.88;4189205;28;20123;-66
2023/10/11 06:44:58;;;;;;;16.98;8.68;;;;;;;14.36;71.06;100805.25;4189686;28;20106;-66
2023/10/11 06:47:03;;;;;;;16.63;7.93;;;;;;;14.37;71.74;100805.25;4191789;28;20033;-66
2023/10/11 06:49:06;;;;;;;18.13;9.07;;;;;;;14.43;71.60;100805.28;4187513;28;20527;-66
2023/10/11 06:51:11;;;;;;;13.93;7.13;;;;;;;14.41;71.41;100806.13;4189260;28;20431;-66
2023/10/11 06:53:14;;;;;;;17.65;7.32;;;;;;;14.38;72.04;100811.38;4195411;28;20368;-66
2023/10/11 06:55:22;;;;;;;18.98;6.90;;;;;;;14.51;70.98;100820.13;4190547;28;20036;-66
2023/10/11 06:57:25;;;;;;;12.23;7.05;;;;;;;14.52;71.18;100820.16;4186978;28;21037;-66
2023/10/11 06:59:56;;;;;;;21.42;8.43;;;;;;;14.58;71.13;100825.38;4189110;28;20145;-66
2023/10/11 07:02:00;;;;;;;13.45;6.75;;;;;;;14.62;70.22;100832.41;4189498;28;20082;-66
2023/10/11 07:04:03;;;;;;;17.83;8.93;;;;;;;14.63;71.14;100838.50;4192395;28;20090;-66
2023/10/11 07:06:10;;;;;;;16.60;6.85;;;;;;;14.65;71.40;100842.03;4188320;28;20505;-65
2023/10/11 07:08:17;;;;;;;17.55;7.68;;;;;;;14.71;71.52;100836.81;4188510;28;20057;-65
2023/10/11 07:12:42;;;;;;;19.73;7.20;;;;;;;14.82;71.02;100834.22;4189212;28;20127;-65
2023/10/11 07:14:45;;;;;;;15.68;6.63;;;;;;;14.86;70.31;100838.59;4190190;28;20079;-65
2023/10/11 07:16:48;;;;;;;16.20;7.63;;;;;;;14.83;71.34;100841.19;4189055;28;20074;-65
2023/10/11 07:18:54;;;;;;;12.27;6.15;;;;;;;14.90;71.27;100839.50;4188265;28;20112;-65
2023/10/11 07:21:07;;;;;;;16.13;7.10;;;;;;;15.00;70.57;100851.72;4180868;28;20033;-65
2023/10/11 07:23:09;;;;;;;14.68;6.35;;;;;;;15.01;69.77;100850.88;4188432;28;20120;-65
2023/10/11 07:25:36;;;;;;;18.33;6.75;;;;;;;15.14;69.43;100844.78;4158680;28;20050;-65
2023/10/11 07:27:41;;;;;;;15.45;7.30;;;;;;;15.20;69.92;100843.91;4155917;28;20057;-65
2023/10/11 07:29:45;;;;;;;14.82;7.70;;;;;;;15.24;70.04;100837.78;4152733;28;20045;-65
2023/10/11 07:31:52;;;;;;;13.32;6.50;;;;;;;15.23;69.89;100835.16;4155723;28;20156;-65
2023/10/11 07:33:55;;;;;;;19.75;6.60;;;;;;;15.25;69.82;100838.69;4158242;28;20040;-65
2023/10/11 07:36:00;;;;;;;18.55;6.60;;;;;;;15.29;69.56;100833.44;4155563;28;20125;-65
2023/10/11 07:38:03;;;;;;;16.13;7.65;;;;;;;15.42;68.86;100836.94;4151552;28;20091;-65
2023/10/11 07:40:12;;;;;;;14.55;7.07;;;;;;;15.40;69.62;100832.56;4151734;28;20132;-65
2023/10/11 07:42:18;;;;;;;16.38;6.93;;;;;;;15.41;69.77;100836.94;4153657;28;20068;-65
2023/10/11 07:44:27;;;;;;;19.23;7.97;;;;;;;15.54;69.20;100836.94;4156889;28;20111;-65
2023/10/11 07:46:33;;;;;;;16.80;7.78;;;;;;;15.58;68.47;100836.94;4154629;28;20077;-65
2023/10/11 07:48:39;;;;;;;20.58;7.88;;;;;;;15.69;68.00;100840.44;4153284;28;20520;-65
2023/10/11 07:50:46;;;;;;;18.48;8.02;;;;;;;15.67;68.56;100848.28;4145434;28;20047;-65
2023/10/11 07:52:50;;;;;;;16.17;7.60;;;;;;;15.65;68.58;100842.19;4147063;28;20057;-65
2023/10/11 07:54:55;;;;;;;14.48;6.85;;;;;;;15.69;68.30;100838.66;4155403;28;20037;-65
2023/10/11 07:57:00;;;;;;;16.63;6.28;;;;;;;15.75;68.03;100843.03;4156018;28;20539;-65
2023/10/11 07:59:07;;;;;;;18.27;6.00;;;;;;;15.76;68.47;100842.16;4153270;28;20034;-65
2023/10/11 08:01:15;;;;;;;15.52;6.25;;;;;;;15.84;68.27;100850.94;4156862;28;20148;-65
2023/10/11 08:03:18;;;;;;;22.50;7.57;;;;;;;15.90;67.72;100850.03;4152564;28;20041;-65
2023/10/11 08:05:21;;;;;;;16.65;6.63;;;;;;;15.94;67.21;100843.91;4155120;28;20037;-65
2023/10/11 08:07:24;;;;;;;12.90;6.03;;;;;;;16.01;67.19;100842.16;4158734;28;20096;-65
2023/10/11 08:09:54;;;;;;;12.25;6.13;;;;;;;16.07;67.54;100841.28;4156152;28;20057;-66
2023/10/11 08:11:59;;;;;;;21.95;6.53;;;;;;;16.14;67.17;100840.41;4155449;28;20041;-65
2023/10/11 08:14:10;;;;;;;18.52;6.55;;;;;;;16.18;67.54;100834.25;4155330;28;20034;-65
2023/10/11 08:16:17;;;;;;;19.35;6.57;;;;;;;16.24;66.90;100831.63;4171783;28;20067;-65
2023/10/11 08:18:21;;;;;;;18.85;8.32;;;;;;;16.35;66.43;100837.72;4152024;28;20038;-65
2023/10/11 08:20:28;;;;;;;18.03;6.93;;;;;;;16.43;66.37;100837.66;4156098;28;20092;-65
2023/10/11 08:22:32;;;;;;;16.55;7.35;;;;;;;16.56;66.16;100835.88;4156656;28;20288;-65
2023/10/11 08:24:45;;;;;;;16.58;7.68;;;;;;;16.55;65.89;100836.75;4153760;28;20124;-65
2023/10/11 08:26:52;;;;;;;17.95;6.70;;;;;;;16.57;65.75;100833.25;4152296;28;20061;-65
2023/10/11 08:29:05;;;;;;;18.42;8.30;;;;;;;16.62;65.62;100827.97;4155155;28;20408;-65
2023/10/11 08:31:10;;;;;;;20.52;6.20;;;;;;;16.66;65.66;100824.44;4153949;28;20384;-65
2023/10/11 08:33:15;;;;;;;16.60;6.40;;;;;;;16.74;65.65;100814.75;4153035;28;20061;-65
2023/10/11 08:35:31;;;;;;;19.38;7.00;;;;;;;16.81;65.71;100820.00;4154197;28;20129;-66
2023/10/11 08:37:34;;;;;;;10.70;5.97;;;;;;;16.90;65.50;100820.81;4153747;28;20041;-65
2023/10/11 08:39:42;;;;;;;15.00;5.72;;;;;;;16.96;65.53;100824.31;4154135;28;20044;-66
2023/10/11 08:41:45;;;;;;;13.55;5.50;;;;;;;17.01;65.22;100827.75;4150016;28;20076;-65
2023/10/11 08:43:49;;;;;;;12.43;5.70;;;;;;;17.05;65.21;100817.22;4152253;28;20042;-65
2023/10/11 08:46:00;;;;;;;14.13;7.05;;;;;;;17.18;65.15;100820.66;4150580;28;20041;-65
2023/10/11 08:48:06;;;;;;;15.88;5.72;;;;;;;17.31;65.00;100824.06;4144592;28;20041;-65
2023/10/11 08:50:17;;;;;;;14.80;6.03;;;;;;;17.31;64.82;100816.16;4156682;28;20061;-65
2023/10/11 08:52:24;;;;;;;12.98;5.50;;;;;;;17.49;64.56;100819.53;4152216;28;20046;-65
2023/10/11 08:54:28;;;;;;;12.23;6.40;;;;;;;17.60;63.45;100817.69;4155243;28;20076;-65
2023/10/11 08:56:33;;;;;;;11.32;6.07;;;;;;;17.70;62.89;100826.38;4153684;28;20099;-65
2023/10/11 08:58:36;;;;;;;17.52;6.10;;;;;;;17.74;62.97;100826.31;4154858;28;20120;-65
2023/10/11 09:00:47;;;;;;;16.52;6.00;;;;;;;17.89;62.88;100820.03;4149554;28;20044;-65
2023/10/11 09:02:52;;;;;;;15.85;5.75;;;;;;;17.97;62.70;100827.88;4152626;28;20042;-66
2023/10/11 09:04:57;;;;;;;12.55;6.20;;;;;;;18.08;62.52;100833.91;4155155;28;20063;-65
2023/10/11 09:07:01;;;;;;;16.42;6.35;;;;;;;18.23;62.26;100829.34;4154310;28;20041;-66
2023/10/11 09:09:04;;;;;;;15.98;5.90;;;;;;;18.27;62.15;100836.34;4157748;28;20033;-65
2023/10/11 09:11:12;;;;;;;14.90;6.20;;;;;;;18.38;62.03;100839.69;4154394;28;20045;-65
2023/10/11 09:13:26;;;;;;;17.70;5.13;;;;;;;18.55;61.92;100836.00;4154428;28;20121;-66
2023/10/11 09:15:40;;;;;;;13.77;5.13;;;;;;;18.64;61.31;100835.88;4155647;28;20037;-66
2023/10/11 09:17:49;;;;;;;12.27;6.15;;;;;;;18.74;60.95;100834.84;4152686;28;20037;-66
2023/10/11 09:19:53;;;;;;;13.02;6.50;;;;;;;18.84;60.06;100830.34;4155141;28;20041;-66
2023/10/11 09:22:03;;;;;;;12.48;5.00;;;;;;;18.92;59.57;100830.25;4155765;28;20073;-66
2023/10/11 09:24:24;;;;;;;10.95;4.55;;;;;;;19.09;60.06;100822.97;4153832;28;20092;-66
2023/10/11 09:26:32;;;;;;;21.90;5.78;;;;;;;19.27;58.87;100820.94;4154202;28;20064;-66
2023/10/11 09:28:56;;;;;;;14.77;4.88;;;;;;;19.45;58.34;100817.13;4155462;28;20050;-66
2023/10/11 09:31:10;;;;;;;16.38;6.43;;;;;;;19.66;57.86;100818.53;4157270;28;20037;-66
2023/10/11 09:33:17;;;;;;;11.93;5.22;;;;;;;19.71;57.88;100812.28;4156268;28;20492;-66
2023/10/11 09:35:26;;;;;;;12.93;4.88;;;;;;;19.76;57.65;100811.34;4155318;28;20038;-66
2023/10/11 09:37:33;;;;;;;15.95;5.35;;;;;;;19.95;56.65;100814.53;4170354;28;20494;-66
2023/10/11 09:39:37;;;;;;;19.05;5.28;;;;;;;20.11;55.89;100815.97;4154667;28;20080;-66
2023/10/11 09:41:44;;;;;;;9.23;3.70;;;;;;;20.23;56.16;100810.41;4159964;28;20046;-66
2023/10/11 09:43:47;;;;;;;14.15;5.30;;;;;;;20.30;55.87;100816.47;4152879;28;20072;-66
2023/10/11 09:45:53;;;;;;;13.43;4.53;;;;;;;20.48;55.08;100804.63;4154618;28;20069;-66
2023/10/11 09:47:58;;;;;;;17.15;6.07;;;;;;;20.57;55.51;100799.19;4156502;28;20045;-66
2023/10/11 09:50:02;;;;;;;12.10;4.82;;;;;;;20.63;54.98;100807.84;4155083;28;20044;-66
2023/10/11 09:52:07;;;;;;;12.60;4.78;;;;;;;20.68;54.73;100811.31;4158743;28;20041;-66
2023/10/11 09:54:13;;;;;;;17.85;5.53;;;;;;;20.80;54.03;100808.38;4156317;28;20252;-66
2023/10/11 09:56:40;;;;;;;16.05;4.95;;;;;;;21.05;53.67;100807.81;4143773;28;20081;-66
2023/10/11 09:58:49;;;;;;;19.85;5.70;;;;;;;21.14;53.96;100801.44;4154011;28;20049;-66
2023/10/11 10:01:07;;;;;;;18.17;4.95;;;;;;;21.16;54.21;100803.16;4156380;28;20062;-66
2023/10/11 10:03:13;;;;;;;15.98;5.45;;;;;;;21.37;52.91;100808.81;4158670;28;20459;-66
2023/10/11 10:05:22;;;;;;;22.57;4.93;;;;;;;21.38;53.35;100799.97;4156724;28;20041;-66
2023/10/11 10:07:32;;;;;;;10.45;4.70;;;;;;;21.51;52.84;100809.38;4156520;28;20544;-66